createdAt,value
2022-12-12T00:00:42.853Z,2.3
2022-12-12T00:03:48.118Z,2
2022-12-12T00:06:36.859Z,2.2
2022-12-12T00:09:24.639Z,2.2
2022-12-12T00:12:12.194Z,2.1
2022-12-12T00:15:00.193Z,2
2022-12-12T00:17:49.622Z,2
2022-12-12T00:20:37.161Z,2.1
2022-12-12T00:23:24.703Z,2.1
2022-12-12T00:26:12.514Z,2.1
2022-12-12T00:29:04.373Z,2.1
2022-12-12T00:31:52.091Z,2.2
2022-12-12T00:34:39.523Z,2.2
2022-12-12T00:37:27.109Z,2.3
2022-12-12T00:40:14.642Z,2.3
2022-12-12T00:43:02.471Z,2.3
2022-12-12T00:45:50.006Z,2.3
2022-12-12T00:48:38.153Z,2.2
2022-12-12T00:51:25.842Z,2.3
2022-12-12T00:54:15.092Z,2.3
2022-12-12T00:57:02.654Z,2.2
2022-12-12T00:59:50.353Z,2.1
2022-12-12T01:02:37.855Z,2.1
2022-12-12T01:05:26.117Z,2.2
2022-12-12T01:08:14.823Z,2.4
2022-12-12T01:11:02.409Z,2.5
2022-12-12T01:13:50.358Z,2.5
2022-12-12T01:16:39.929Z,2.6
2022-12-12T01:19:27.697Z,2.6
2022-12-12T01:22:15.260Z,2.7
2022-12-12T01:25:02.731Z,2.7
2022-12-12T01:27:50.819Z,2.7
2022-12-12T01:30:38.407Z,2.6
2022-12-12T01:33:26.348Z,2.7
2022-12-12T01:36:14.017Z,2.8
2022-12-12T01:39:05.385Z,2.9
2022-12-12T01:41:52.865Z,2.9
2022-12-12T01:44:40.396Z,3
2022-12-12T01:47:30.375Z,2.9
2022-12-12T01:50:18.010Z,3
2022-12-12T01:53:05.851Z,3.1
2022-12-12T01:55:53.888Z,3
2022-12-12T01:58:42.519Z,2.9
2022-12-12T02:01:34.025Z,3
2022-12-12T02:04:22.473Z,3
2022-12-12T02:07:12.940Z,3.1
2022-12-12T02:10:02.639Z,3.1
2022-12-12T02:12:52.189Z,3.2
2022-12-12T02:15:45.034Z,3.1
2022-12-12T02:18:43.692Z,3.3
2022-12-12T02:21:42.285Z,3.2
2022-12-12T02:24:37.374Z,3.2
2022-12-12T02:27:52.100Z,3.2
2022-12-12T02:30:58.566Z,3.3
2022-12-12T02:33:59.282Z,3.2
2022-12-12T02:36:52.579Z,3.3
2022-12-12T02:39:49.675Z,3.3
2022-12-12T02:42:46.655Z,3.4
2022-12-12T02:45:42.391Z,3.4
2022-12-12T02:48:35.556Z,3.5
2022-12-12T02:51:31.911Z,3.4
2022-12-12T02:54:20.943Z,3.5
2022-12-12T02:57:09.052Z,3.5
2022-12-12T03:00:01.147Z,3.5
2022-12-12T03:02:52.999Z,3.5
2022-12-12T03:06:49.527Z,3.5
2022-12-12T03:10:20.241Z,3.6
2022-12-12T03:13:24.483Z,3.8
2022-12-12T03:16:21.478Z,3.9
2022-12-12T03:19:13.567Z,4
2022-12-12T03:22:07.853Z,3.9
2022-12-12T03:25:05.308Z,3.9
2022-12-12T03:27:58.737Z,4
2022-12-12T03:30:51.273Z,4
2022-12-12T03:33:42.767Z,4
2022-12-12T03:36:35.750Z,4.1
2022-12-12T03:39:28.081Z,4
2022-12-12T03:42:20.642Z,3.9
2022-12-12T03:45:13.366Z,3.9
2022-12-12T03:48:08.775Z,4
2022-12-12T03:51:01.302Z,4
2022-12-12T03:53:52.915Z,4
2022-12-12T03:56:48.993Z,3.6
2022-12-12T03:59:41.703Z,3.8
2022-12-12T04:02:32.805Z,3.8
2022-12-12T04:05:26.377Z,3.8
2022-12-12T04:08:22.978Z,3.8
2022-12-12T04:11:11.978Z,3.9
2022-12-12T04:15:09.062Z,3.8
2022-12-12T04:18:10.991Z,3.9
2022-12-12T04:21:05.556Z,3.7
2022-12-12T04:26:10.915Z,3.8
2022-12-12T04:29:34.844Z,3.6
2022-12-12T04:32:27.485Z,3.7
2022-12-12T04:35:20.883Z,3.7
2022-12-12T04:38:12.573Z,3.9
2022-12-12T04:41:06.354Z,3.8
2022-12-12T04:43:57.531Z,3.8
2022-12-12T04:46:48.200Z,4
2022-12-12T04:49:40.372Z,3.7
2022-12-12T04:52:31.682Z,3.8
2022-12-12T04:55:20.317Z,3.8
2022-12-12T04:58:12.406Z,3.8
2022-12-12T05:01:00.487Z,3.7
2022-12-12T05:03:54.850Z,3.6
2022-12-12T05:06:46.026Z,3.6
2022-12-12T05:09:40.237Z,3.7
2022-12-12T05:12:29.383Z,3.5
2022-12-12T05:15:24.886Z,3.7
2022-12-12T05:18:14.481Z,3.7
2022-12-12T05:21:02.542Z,3.9
2022-12-12T05:23:50.571Z,4.1
2022-12-12T05:26:38.150Z,4.1
2022-12-12T05:29:26.531Z,3.7
2022-12-12T05:32:14.148Z,3.7
2022-12-12T05:35:01.808Z,3.9
2022-12-12T05:37:52.214Z,4
2022-12-12T05:40:40.109Z,3.9
2022-12-12T05:43:27.613Z,4.1
2022-12-12T05:46:15.350Z,4.1
2022-12-12T05:49:02.988Z,3.9
2022-12-12T05:51:50.581Z,4
2022-12-12T05:54:38.104Z,4.1
2022-12-12T05:57:25.854Z,4.1
2022-12-12T06:00:13.575Z,3.9
2022-12-12T06:03:01.511Z,3.9
2022-12-12T06:05:49.525Z,4
2022-12-12T06:08:37.200Z,3.9
2022-12-12T06:11:24.795Z,3.9
2022-12-12T06:14:12.730Z,3.9
2022-12-12T06:17:01.167Z,3.7
2022-12-12T06:19:49.123Z,3.6
2022-12-12T06:22:37.858Z,3.6
2022-12-12T06:25:26.907Z,3.8
2022-12-12T06:28:14.871Z,3.9
2022-12-12T06:31:04.566Z,3.6
2022-12-12T06:33:55.761Z,3.5
2022-12-12T06:36:43.428Z,3.7
2022-12-12T06:39:31.252Z,3.7
2022-12-12T06:42:18.910Z,3.6
2022-12-12T06:45:06.423Z,3.7
2022-12-12T06:47:54.716Z,3.8
2022-12-12T06:50:42.151Z,3.8
2022-12-12T06:53:30.829Z,3.7
2022-12-12T06:56:18.593Z,3.6
2022-12-12T06:59:08.645Z,3.7
2022-12-12T07:01:57.420Z,3.6
2022-12-12T07:04:45.711Z,3.7
2022-12-12T07:07:33.293Z,3.9
2022-12-12T07:10:21.524Z,3.9
2022-12-12T07:13:09.180Z,3.9
2022-12-12T07:15:57.777Z,4.1
2022-12-12T07:18:45.997Z,4.2
2022-12-12T07:21:34.114Z,4.2
2022-12-12T07:24:22.102Z,4.3
2022-12-12T07:27:09.594Z,3.9
2022-12-12T07:29:57.199Z,4.2
2022-12-12T07:32:44.763Z,4.3
2022-12-12T07:35:32.182Z,4.4
2022-12-12T07:38:20.127Z,4.2
2022-12-12T07:41:07.645Z,4.3
2022-12-12T07:43:58.963Z,4.4
2022-12-12T07:46:46.577Z,4.5
2022-12-12T07:49:34.296Z,4.5
2022-12-12T07:52:21.999Z,4.5
2022-12-12T07:55:09.663Z,4.4
2022-12-12T07:57:57.667Z,4.5
2022-12-12T08:00:45.401Z,4.6
2022-12-12T08:03:32.996Z,4.3
2022-12-12T08:06:20.726Z,4.3
2022-12-12T08:09:08.997Z,4.3
2022-12-12T08:11:56.672Z,4.4
2022-12-12T08:14:44.853Z,4.5
2022-12-12T08:17:33.085Z,4.4
2022-12-12T08:20:20.627Z,4.6
2022-12-12T08:23:08.271Z,4.4
2022-12-12T08:25:56.427Z,4.6
2022-12-12T08:28:49.823Z,4.7
2022-12-12T08:31:37.538Z,4.6
2022-12-12T08:34:25.692Z,4.6
2022-12-12T08:37:13.351Z,4.7
2022-12-12T08:40:01.093Z,4.7
2022-12-12T08:42:50.658Z,4.7
2022-12-12T08:45:38.279Z,4.8
2022-12-12T08:48:25.980Z,4.8
2022-12-12T08:51:13.865Z,4.8
2022-12-12T08:54:02.924Z,4.9
2022-12-12T08:56:50.871Z,5
2022-12-12T08:59:38.483Z,5
2022-12-12T09:02:26.187Z,5.1
2022-12-12T09:05:14.172Z,5.1
2022-12-12T09:08:02.323Z,5
2022-12-12T09:10:50.183Z,5
2022-12-12T09:13:37.891Z,5.1
2022-12-12T09:16:25.986Z,5.1
2022-12-12T09:19:14.803Z,5.2
2022-12-12T09:22:02.798Z,4.9
2022-12-12T09:24:50.362Z,5
2022-12-12T09:27:38.279Z,5.3
2022-12-12T09:30:25.813Z,5.2
2022-12-12T09:33:13.479Z,5.2
2022-12-12T09:36:02.346Z,5.2
2022-12-12T09:38:52.421Z,5.2
2022-12-12T09:41:40.102Z,5.3
2022-12-12T09:44:27.612Z,5.3
2022-12-12T09:47:15.151Z,5.4
2022-12-12T09:50:09.236Z,5.3
2022-12-12T09:53:04.109Z,5.5
2022-12-12T09:55:56.248Z,5.5
2022-12-12T09:58:56.492Z,5.5
2022-12-12T10:01:51.171Z,5.4
2022-12-12T10:04:51.147Z,5.3
2022-12-12T10:07:46.398Z,5.3
2022-12-12T10:10:42.913Z,5.2
2022-12-12T10:13:33.500Z,5
2022-12-12T10:16:22.186Z,5.2
2022-12-12T10:19:10.610Z,5.3
2022-12-12T10:22:05.979Z,5.3
2022-12-12T10:25:01.540Z,5.5
2022-12-12T10:28:00.767Z,5.6
2022-12-12T10:30:55.156Z,5.7
2022-12-12T10:33:55.268Z,5.7
2022-12-12T10:36:56.532Z,5.7
2022-12-12T10:40:03.391Z,5.5
2022-12-12T10:43:08.065Z,5.4
2022-12-12T10:46:03.890Z,5.5
2022-12-12T10:49:04.391Z,5.5
2022-12-12T10:52:00.341Z,5.8
2022-12-12T10:54:50.954Z,6
2022-12-12T10:57:43.151Z,6
2022-12-12T11:00:31.123Z,5.6
2022-12-12T11:03:21.611Z,5.8
2022-12-12T11:06:13.788Z,6.1
2022-12-12T11:09:06.164Z,6.4
2022-12-12T11:12:02.103Z,5.9
2022-12-12T11:14:58.597Z,5.5
2022-12-12T11:17:51.576Z,5.2
2022-12-12T11:20:41.879Z,5.6
2022-12-12T11:23:32.368Z,5.9
2022-12-12T11:26:24.360Z,6.1
2022-12-12T11:29:14.282Z,6.1
2022-12-12T11:32:27.695Z,5.5
2022-12-12T11:35:22.840Z,5.5
2022-12-12T11:38:14.581Z,5.8
2022-12-12T11:41:05.091Z,5.9
2022-12-12T11:43:55.888Z,6.2
2022-12-12T11:46:46.061Z,5.7
2022-12-12T11:49:33.665Z,5.4
2022-12-12T11:52:31.173Z,5.8
2022-12-12T11:55:19.458Z,6
2022-12-12T11:58:17.419Z,6
2022-12-12T12:01:11.722Z,5.9
2022-12-12T12:04:08.807Z,5.3
2022-12-12T12:07:15.009Z,5.3
2022-12-12T12:10:26.298Z,5.7
2022-12-12T12:13:27.371Z,5.8
2022-12-12T12:16:32.923Z,6.1
2022-12-12T12:19:33.639Z,5.7
2022-12-12T12:22:28.654Z,5
2022-12-12T12:25:30.151Z,4.9
2022-12-12T12:28:28.875Z,5.1
2022-12-12T12:31:36.266Z,5.4
2022-12-12T12:34:30.822Z,5.6
2022-12-12T12:37:29.326Z,5.4
2022-12-12T12:40:31.956Z,5.4
2022-12-12T12:43:35.277Z,5.5
2022-12-12T12:46:38.309Z,5.1
2022-12-12T12:49:34.251Z,4.4
2022-12-12T12:52:28.230Z,4.5
2022-12-12T12:55:19.878Z,4.7
2022-12-12T12:58:13.642Z,4.9
2022-12-12T13:01:06.737Z,5
2022-12-12T13:03:59.307Z,5
2022-12-12T13:06:50.888Z,5.2
2022-12-12T13:09:43.978Z,4.8
2022-12-12T13:12:40.853Z,4.8
2022-12-12T13:15:32.826Z,4.7
2022-12-12T13:18:25.337Z,4.8
2022-12-12T13:21:16.404Z,5.2
2022-12-12T13:24:15.258Z,5.1
2022-12-12T13:27:06.608Z,5.4
2022-12-12T13:30:01.787Z,4.9
2022-12-12T13:33:02.120Z,4.1
2022-12-12T13:36:13.467Z,4
2022-12-12T13:39:07.461Z,4.2
2022-12-12T13:42:10.163Z,4.4
2022-12-12T13:44:59.303Z,4.3
2022-12-12T13:48:21.134Z,4.4
2022-12-12T13:51:28.585Z,4.4
2022-12-12T13:54:19.514Z,4.3
2022-12-12T13:57:40.219Z,4.4
2022-12-12T14:01:01.349Z,4.2
2022-12-12T14:04:24.886Z,4.2
2022-12-12T14:07:15.886Z,4
2022-12-12T14:10:07.914Z,4.3
2022-12-12T14:13:09.354Z,4.3
2022-12-12T14:16:24.807Z,4.3
2022-12-12T14:19:12.906Z,4.1
2022-12-12T14:22:14.022Z,4.2
2022-12-12T14:25:12.001Z,4.5
2022-12-12T14:28:05.531Z,4.4
2022-12-12T14:31:04.940Z,4.4
2022-12-12T14:33:59.981Z,4.1
2022-12-12T14:37:02.120Z,4.5
2022-12-12T14:40:30.110Z,4.5
2022-12-12T14:43:22.947Z,4.5
2022-12-12T14:46:15.070Z,4.5
2022-12-12T14:49:04.603Z,4.5
2022-12-12T14:51:58.049Z,4.3
2022-12-12T14:54:46.163Z,4.3
2022-12-12T14:57:35.534Z,4.1
2022-12-12T15:00:23.332Z,4.3
2022-12-12T15:03:12.770Z,4.2
2022-12-12T15:06:01.452Z,4.3
2022-12-12T15:09:14.610Z,4.1
2022-12-12T15:12:07.689Z,4.2
2022-12-12T15:15:00.730Z,3.9
2022-12-12T15:17:50.369Z,4.1
2022-12-12T15:20:39.356Z,3.9
2022-12-12T15:23:26.971Z,3.9
2022-12-12T15:26:14.628Z,3.8
2022-12-12T15:29:05.663Z,3.7
2022-12-12T15:31:58.626Z,3.6
2022-12-12T15:34:49.249Z,3.8
2022-12-12T15:37:47.365Z,3.7
2022-12-12T15:40:41.093Z,3.7
2022-12-12T15:43:32.855Z,3.7
2022-12-12T15:46:21.880Z,3.7
2022-12-12T15:49:09.687Z,3.8
2022-12-12T15:52:22.244Z,3.5
2022-12-12T15:55:13.723Z,3.5
2022-12-12T15:58:05.864Z,3.7
2022-12-12T16:01:05.992Z,3.7
2022-12-12T16:04:03.313Z,3.6
2022-12-12T16:07:07.608Z,3.7
2022-12-12T16:10:06.112Z,3.8
2022-12-12T16:13:10.108Z,3.9
2022-12-12T16:16:09.339Z,3.6
2022-12-12T16:19:30.168Z,3.4
2022-12-12T16:22:26.837Z,3.4
2022-12-12T16:25:18.949Z,3.3
2022-12-12T16:28:10.367Z,3.3
2022-12-12T16:31:04.368Z,3.3
2022-12-12T16:34:00.169Z,3.2
2022-12-12T16:36:49.412Z,3.4
2022-12-12T16:39:37.613Z,3.3
2022-12-12T16:42:25.616Z,3.4
2022-12-12T16:45:13.725Z,3.5
2022-12-12T16:48:01.434Z,3.3
2022-12-12T16:50:59.297Z,3.5
2022-12-12T16:53:49.717Z,3.3
2022-12-12T16:56:37.436Z,3.4
2022-12-12T16:59:24.939Z,3.6
2022-12-12T17:02:12.883Z,3.5
2022-12-12T17:05:04.993Z,3.6
2022-12-12T17:07:57.582Z,3.5
2022-12-12T17:10:45.106Z,3.5
2022-12-12T17:13:36.015Z,3.3
2022-12-12T17:16:28.036Z,3.3
2022-12-12T17:19:15.977Z,3.2
2022-12-12T17:22:03.748Z,3.2
2022-12-12T17:24:51.368Z,3.3
2022-12-12T17:27:38.837Z,3.1
2022-12-12T17:30:27.358Z,3
2022-12-12T17:33:18.073Z,3.4
2022-12-12T17:36:05.836Z,3.3
2022-12-12T17:38:54.413Z,3.3
2022-12-12T17:41:42.776Z,3.1
2022-12-12T17:44:30.312Z,3
2022-12-12T17:47:18.202Z,3.1
2022-12-12T17:50:05.718Z,3.2
2022-12-12T17:52:55.032Z,3.3
2022-12-12T17:55:51.382Z,3.2
2022-12-12T17:58:43.704Z,3
2022-12-12T18:01:34.095Z,3.1
2022-12-12T18:04:27.443Z,2.9
2022-12-12T18:07:20.496Z,3
2022-12-12T18:10:08.048Z,2.8
2022-12-12T18:12:55.981Z,2.8
2022-12-12T18:15:43.629Z,2.9
2022-12-12T18:18:31.372Z,2.7
2022-12-12T18:21:43.386Z,2.9
2022-12-12T18:24:46.559Z,2.9
2022-12-12T18:27:35.000Z,2.8
2022-12-12T18:30:22.728Z,3
2022-12-12T18:33:10.381Z,3.2
2022-12-12T18:35:57.945Z,3.2
2022-12-12T18:38:48.198Z,3
2022-12-12T18:41:36.973Z,3.2
2022-12-12T18:44:24.599Z,2.9
2022-12-12T18:47:12.257Z,3
2022-12-12T18:50:00.073Z,2.9
2022-12-12T18:52:49.446Z,2.8
2022-12-12T18:55:37.359Z,2.9
2022-12-12T18:58:26.586Z,2.8
2022-12-12T19:01:14.107Z,2.7
2022-12-12T19:04:09.056Z,2.5
2022-12-12T19:06:59.847Z,2.7
2022-12-12T19:09:47.557Z,2.6
2022-12-12T19:12:35.472Z,2.7
2022-12-12T19:15:23.087Z,2.8
2022-12-12T19:18:10.580Z,2.8
2022-12-12T19:20:58.135Z,2.8
2022-12-12T19:23:50.294Z,2.6
2022-12-12T19:26:38.092Z,2.6
2022-12-12T19:29:28.935Z,2.5
2022-12-12T19:32:17.890Z,2.5
2022-12-12T19:35:05.589Z,2.7
2022-12-12T19:37:54.630Z,2.5
2022-12-12T19:40:42.193Z,2.5
2022-12-12T19:43:30.512Z,2.5
2022-12-12T19:46:18.360Z,2.6
2022-12-12T19:49:07.870Z,2.7
2022-12-12T19:51:58.366Z,2.5
2022-12-12T19:54:46.385Z,2.5
2022-12-12T19:57:34.064Z,2.6
2022-12-12T20:00:21.670Z,2.6
2022-12-12T20:03:10.578Z,2.7
2022-12-12T20:05:58.125Z,2.6
2022-12-12T20:08:47.257Z,2.7
2022-12-12T20:11:35.998Z,2.8
2022-12-12T20:14:24.624Z,2.7
2022-12-12T20:17:15.163Z,2.7
2022-12-12T20:20:02.885Z,2.5
2022-12-12T20:22:52.669Z,2.7
2022-12-12T20:25:40.250Z,2.7
2022-12-12T20:28:27.795Z,2.8
2022-12-12T20:31:15.553Z,2.8
2022-12-12T20:34:05.230Z,2.7
2022-12-12T20:36:52.853Z,2.6
2022-12-12T20:39:40.812Z,2.7
2022-12-12T20:42:28.395Z,2.6
2022-12-12T20:45:16.758Z,3
2022-12-12T20:48:07.760Z,2.8
2022-12-12T20:50:55.694Z,2.8
2022-12-12T20:53:43.451Z,2.8
2022-12-12T20:56:33.700Z,2.7
2022-12-12T20:59:21.453Z,2.7
2022-12-12T21:02:09.926Z,2.6
2022-12-12T21:04:57.609Z,2.5
2022-12-12T21:07:45.301Z,2.6
2022-12-12T21:10:33.010Z,2.4
2022-12-12T21:13:20.594Z,2.2
2022-12-12T21:16:08.306Z,2.4
2022-12-12T21:18:57.144Z,2.6
2022-12-12T21:21:47.270Z,2.5
2022-12-12T21:24:35.413Z,2.4
2022-12-12T21:27:23.443Z,2.3
2022-12-12T21:30:11.631Z,2.3
2022-12-12T21:32:59.332Z,2.1
2022-12-12T21:35:46.966Z,2.2
2022-12-12T21:38:34.466Z,2.4
2022-12-12T21:41:22.958Z,2.3
2022-12-12T21:44:11.838Z,2.1
2022-12-12T21:47:00.435Z,2.3
2022-12-12T21:49:48.071Z,2.3
2022-12-12T21:52:36.071Z,2.2
2022-12-12T21:55:23.672Z,2.3
2022-12-12T21:58:11.718Z,2.3
2022-12-12T22:00:59.186Z,2.4
2022-12-12T22:03:51.390Z,2.2
2022-12-12T22:06:40.098Z,2.2
2022-12-12T22:09:30.835Z,2
2022-12-12T22:12:18.999Z,2
2022-12-12T22:15:06.873Z,2
2022-12-12T22:17:55.348Z,2.2
2022-12-12T22:20:42.914Z,2.1
2022-12-12T22:23:30.390Z,2.3
2022-12-12T22:26:19.862Z,2.4
2022-12-12T22:29:09.205Z,2.2
2022-12-12T22:31:59.124Z,2.1
2022-12-12T22:34:46.632Z,2
2022-12-12T22:37:34.116Z,1.9
2022-12-12T22:40:21.684Z,1.9
2022-12-12T22:43:09.185Z,1.7
2022-12-12T22:45:56.779Z,1.7
2022-12-12T22:48:49.537Z,1.8
2022-12-12T22:51:38.151Z,1.5
2022-12-12T22:54:25.672Z,1.5
2022-12-12T22:57:13.501Z,1.5
2022-12-12T23:00:01.480Z,1.7
2022-12-12T23:02:54.997Z,1.8
2022-12-12T23:05:42.712Z,1.7
2022-12-12T23:08:30.318Z,1.6
2022-12-12T23:11:18.262Z,1.7
2022-12-12T23:14:07.511Z,1.6
2022-12-12T23:16:59.377Z,1.7
2022-12-12T23:19:46.977Z,2
2022-12-12T23:22:34.619Z,2
2022-12-12T23:25:22.311Z,1.9
2022-12-12T23:28:13.883Z,2
2022-12-12T23:31:01.630Z,2.1
2022-12-12T23:33:53.663Z,2
2022-12-12T23:36:43.551Z,1.7
2022-12-12T23:39:31.484Z,1.5
2022-12-12T23:42:19.103Z,1.7
2022-12-12T23:45:06.801Z,1.5
2022-12-12T23:47:54.940Z,1.5
2022-12-12T23:50:42.489Z,1.5
2022-12-12T23:53:30.042Z,1.3
2022-12-12T23:56:17.840Z,1.5
2022-12-12T23:59:05.600Z,1.5
